Terminal Aerodrome Forecast
Issued by NWS Cleveland, OH

Home | Current Version | Previous Version | Graphics & Text | Print | Product List | Glossary On
Versions: 1 2 3 4 5 6 7 8 9 10 11 12 13 14 15 16 17 18 19 20 21 22 23 24 25 26 27 28 29 30 31 32
000
FTUS41 KCLE 011100
TAFCLE
TAF
KCLE 011138Z 0112/0218 18005KT 1 1/2SM -SN SCT008 OVC015
     FM011500 08010KT 1 1/2SM -SN SCT008 OVC010
     FM012100 06015KT 1/2SM SN OVC004
      TEMPO 0203/0206 1SM -SNPL
     FM020600 03012KT 1SM -SN OVC006
     FM020900 03012G20KT 3/4SM -SN OVC006
     FM021200 35015G25KT 2SM -SN BLSN OVC008=

USA.gov is the U.S. government's official web portal to all federal, state and local government web resources and services.